Fulham, United Kingdom
Current Conditions -  °F | °C
As of 3:50 PM on Thursday 23 Oct 2014 (Local Time) from EGWU Reporting Station
Broken Clouds Broken Clouds  
Wind Chill: 61°   Ceiling: 1700
Heat Index: 61°   Visibility: 6mi
Dew Point: 52°   Wind: 9mph
Humidity: 72%   Direction: 210°SSW
Pressure: 30.06"   Gusts: NA
Location:  51.48°N, 0.2°W
Report Text: EGWU 231450Z 21008KT 9999 FEW013 BKN017 16/11 Q1018 WHT TEMPO SCT012 GRN
Loading
Personal Weather Stations






























Interactive Weather Map New forecast layout! Learn more

10-Day Weather Forecast

Advertisements
Track Severe Weather on mobile